sensor_id;sensor_type;location;lat;lon;timestamp;temperature;humidity
14962;DHT22;56489;53.166;10.864;2022-11-15T00:00:56;7.50;99.90
14962;DHT22;56489;53.166;10.864;2022-11-15T00:03:26;7.50;99.90
14962;DHT22;56489;53.166;10.864;2022-11-15T00:05:54;7.50;99.90
14962;DHT22;56489;53.166;10.864;2022-11-15T00:08:21;7.50;99.90
14962;DHT22;56489;53.166;10.864;2022-11-15T00:10:55;7.60;99.90
14962;DHT22;56489;53.166;10.864;2022-11-15T00:13:22;7.60;99.90
14962;DHT22;56489;53.166;10.864;2022-11-15T00:15:49;7.60;99.90
14962;DHT22;56489;53.166;10.864;2022-11-15T00:18:17;7.60;99.90
14962;DHT22;56489;53.166;10.864;2022-11-15T00:20:44;7.60;99.90
14962;DHT22;56489;53.166;10.864;2022-11-15T00:23:11;7.60;99.90
14962;DHT22;56489;53.166;10.864;2022-11-15T00:25:38;7.60;99.90
14962;DHT22;56489;53.166;10.864;2022-11-15T00:28:04;7.60;99.90
14962;DHT22;56489;53.166;10.864;2022-11-15T00:30:31;7.60;99.90
14962;DHT22;56489;53.166;10.864;2022-11-15T00:33:05;7.60;99.90
14962;DHT22;56489;53.166;10.864;2022-11-15T00:35:34;7.60;99.90
14962;DHT22;56489;53.166;10.864;2022-11-15T00:38:02;7.60;99.90
14962;DHT22;56489;53.166;10.864;2022-11-15T00:40:28;7.50;99.90
14962;DHT22;56489;53.166;10.864;2022-11-15T00:42:56;7.50;99.90
14962;DHT22;56489;53.166;10.864;2022-11-15T00:45:24;7.50;99.90
14962;DHT22;56489;53.166;10.864;2022-11-15T00:47:51;7.50;99.90
14962;DHT22;56489;53.166;10.864;2022-11-15T00:50:21;7.50;99.90
14962;DHT22;56489;53.166;10.864;2022-11-15T00:52:48;7.50;99.90
14962;DHT22;56489;53.166;10.864;2022-11-15T00:55:19;7.50;99.90
14962;DHT22;56489;53.166;10.864;2022-11-15T00:57:46;7.50;99.90
14962;DHT22;56489;53.166;10.864;2022-11-15T01:00:13;7.50;99.90
14962;DHT22;56489;53.166;10.864;2022-11-15T01:02:40;7.50;99.90
14962;DHT22;56489;53.166;10.864;2022-11-15T01:05:08;7.50;99.90
14962;DHT22;56489;53.166;10.864;2022-11-15T01:07:34;7.50;99.90
14962;DHT22;56489;53.166;10.864;2022-11-15T01:10:02;7.50;99.90
14962;DHT22;56489;53.166;10.864;2022-11-15T01:12:29;7.40;99.90
14962;DHT22;56489;53.166;10.864;2022-11-15T01:14:56;7.40;99.90
14962;DHT22;56489;53.166;10.864;2022-11-15T01:17:23;7.40;99.90
14962;DHT22;56489;53.166;10.864;2022-11-15T01:19:50;7.40;99.90
14962;DHT22;56489;53.166;10.864;2022-11-15T01:22:16;7.30;99.90
14962;DHT22;56489;53.166;10.864;2022-11-15T01:24:43;7.30;99.90
14962;DHT22;56489;53.166;10.864;2022-11-15T01:27:10;7.30;99.90
14962;DHT22;56489;53.166;10.864;2022-11-15T01:29:37;7.30;99.90
14962;DHT22;56489;53.166;10.864;2022-11-15T01:32:04;7.30;99.90
14962;DHT22;56489;53.166;10.864;2022-11-15T01:34:31;7.30;99.90
14962;DHT22;56489;53.166;10.864;2022-11-15T01:36:57;7.30;99.90
14962;DHT22;56489;53.166;10.864;2022-11-15T01:39:24;7.30;99.90
14962;DHT22;56489;53.166;10.864;2022-11-15T01:41:51;7.20;99.90
14962;DHT22;56489;53.166;10.864;2022-11-15T01:47:03;7.20;99.90
14962;DHT22;56489;53.166;10.864;2022-11-15T01:49:33;7.10;99.90
14962;DHT22;56489;53.166;10.864;2022-11-15T01:52:03;7.10;99.90
14962;DHT22;56489;53.166;10.864;2022-11-15T01:54:30;7.10;99.90
14962;DHT22;56489;53.166;10.864;2022-11-15T01:57:07;7.10;99.90
14962;DHT22;56489;53.166;10.864;2022-11-15T01:59:42;7.10;99.90
14962;DHT22;56489;53.166;10.864;2022-11-15T02:02:10;7.00;99.90
14962;DHT22;56489;53.166;10.864;2022-11-15T02:04:42;7.00;99.90
14962;DHT22;56489;53.166;10.864;2022-11-15T02:07:11;7.00;99.90
14962;DHT22;56489;53.166;10.864;2022-11-15T02:09:39;7.00;99.90
14962;DHT22;56489;53.166;10.864;2022-11-15T02:12:07;7.00;99.90
14962;DHT22;56489;53.166;10.864;2022-11-15T02:14:38;7.00;99.90
14962;DHT22;56489;53.166;10.864;2022-11-15T02:17:29;7.00;99.90
14962;DHT22;56489;53.166;10.864;2022-11-15T02:34:56;6.90;99.90
14962;DHT22;56489;53.166;10.864;2022-11-15T02:40:26;7.00;99.90
14962;DHT22;56489;53.166;10.864;2022-11-15T02:42:56;6.90;99.90
14962;DHT22;56489;53.166;10.864;2022-11-15T02:45:48;7.00;99.90
14962;DHT22;56489;53.166;10.864;2022-11-15T02:48:17;6.90;99.90
14962;DHT22;56489;53.166;10.864;2022-11-15T02:50:45;7.00;99.90
14962;DHT22;56489;53.166;10.864;2022-11-15T02:53:14;6.90;99.90
14962;DHT22;56489;53.166;10.864;2022-11-15T02:55:48;6.90;99.90
14962;DHT22;56489;53.166;10.864;2022-11-15T03:01:21;6.90;99.90
14962;DHT22;56489;53.166;10.864;2022-11-15T03:06:43;7.00;99.90
14962;DHT22;56489;53.166;10.864;2022-11-15T03:09:35;7.00;99.90
14962;DHT22;56489;53.166;10.864;2022-11-15T03:12:13;7.00;99.90
14962;DHT22;56489;53.166;10.864;2022-11-15T03:15:06;7.10;99.90
14962;DHT22;56489;53.166;10.864;2022-11-15T03:18:11;7.10;99.90
14962;DHT22;56489;53.166;10.864;2022-11-15T03:20:43;7.20;99.90
14962;DHT22;56489;53.166;10.864;2022-11-15T03:23:11;7.20;99.90
14962;DHT22;56489;53.166;10.864;2022-11-15T03:25:46;7.20;99.90
14962;DHT22;56489;53.166;10.864;2022-11-15T03:28:20;7.20;99.90
14962;DHT22;56489;53.166;10.864;2022-11-15T03:30:49;7.20;99.90
14962;DHT22;56489;53.166;10.864;2022-11-15T03:33:17;7.20;99.90
14962;DHT22;56489;53.166;10.864;2022-11-15T03:35:46;7.20;99.90
14962;DHT22;56489;53.166;10.864;2022-11-15T03:38:25;7.20;99.90
14962;DHT22;56489;53.166;10.864;2022-11-15T03:41:01;7.20;99.90
14962;DHT22;56489;53.166;10.864;2022-11-15T03:43:56;7.20;99.90
14962;DHT22;56489;53.166;10.864;2022-11-15T03:46:27;7.20;99.90
14962;DHT22;56489;53.166;10.864;2022-11-15T03:49:06;7.20;99.90
14962;DHT22;56489;53.166;10.864;2022-11-15T03:51:35;7.20;99.90
14962;DHT22;56489;53.166;10.864;2022-11-15T03:54:04;7.20;99.90
14962;DHT22;56489;53.166;10.864;2022-11-15T03:56:31;7.20;99.90
14962;DHT22;56489;53.166;10.864;2022-11-15T03:58:58;7.20;99.90
14962;DHT22;56489;53.166;10.864;2022-11-15T04:01:24;7.20;99.90
14962;DHT22;56489;53.166;10.864;2022-11-15T04:03:52;7.10;99.90
14962;DHT22;56489;53.166;10.864;2022-11-15T04:06:18;7.10;99.90
14962;DHT22;56489;53.166;10.864;2022-11-15T04:08:45;7.10;99.90
14962;DHT22;56489;53.166;10.864;2022-11-15T04:11:12;7.10;99.90
14962;DHT22;56489;53.166;10.864;2022-11-15T04:13:38;7.20;99.90
14962;DHT22;56489;53.166;10.864;2022-11-15T04:16:05;7.10;99.90
14962;DHT22;56489;53.166;10.864;2022-11-15T04:18:32;7.10;99.90
14962;DHT22;56489;53.166;10.864;2022-11-15T04:20:59;7.10;99.90
14962;DHT22;56489;53.166;10.864;2022-11-15T04:23:44;7.10;99.90
14962;DHT22;56489;53.166;10.864;2022-11-15T04:26:30;7.10;99.90
14962;DHT22;56489;53.166;10.864;2022-11-15T04:28:57;7.10;99.90
14962;DHT22;56489;53.166;10.864;2022-11-15T04:31:42;7.10;99.90
14962;DHT22;56489;53.166;10.864;2022-11-15T04:34:09;7.00;99.90
14962;DHT22;56489;53.166;10.864;2022-11-15T04:36:35;7.00;99.90
14962;DHT22;56489;53.166;10.864;2022-11-15T04:39:21;7.00;99.90
14962;DHT22;56489;53.166;10.864;2022-11-15T04:41:48;6.90;99.90
14962;DHT22;56489;53.166;10.864;2022-11-15T04:44:15;6.90;99.90
14962;DHT22;56489;53.166;10.864;2022-11-15T04:46:42;6.90;99.90
14962;DHT22;56489;53.166;10.864;2022-11-15T04:49:09;6.90;99.90
14962;DHT22;56489;53.166;10.864;2022-11-15T04:51:36;6.90;99.90
14962;DHT22;56489;53.166;10.864;2022-11-15T04:54:03;7.00;99.90
14962;DHT22;56489;53.166;10.864;2022-11-15T04:56:30;7.00;99.90
14962;DHT22;56489;53.166;10.864;2022-11-15T04:58:56;7.00;99.90
14962;DHT22;56489;53.166;10.864;2022-11-15T05:01:23;7.00;99.90
14962;DHT22;56489;53.166;10.864;2022-11-15T05:03:50;7.00;99.90
14962;DHT22;56489;53.166;10.864;2022-11-15T05:06:36;7.00;99.90
14962;DHT22;56489;53.166;10.864;2022-11-15T05:09:03;7.00;99.90
14962;DHT22;56489;53.166;10.864;2022-11-15T05:11:30;7.00;99.90
14962;DHT22;56489;53.166;10.864;2022-11-15T05:13:57;7.00;99.90
14962;DHT22;56489;53.166;10.864;2022-11-15T05:16:24;7.00;99.90
14962;DHT22;56489;53.166;10.864;2022-11-15T05:18:52;7.00;99.90
14962;DHT22;56489;53.166;10.864;2022-11-15T05:21:19;7.00;99.90
14962;DHT22;56489;53.166;10.864;2022-11-15T05:23:46;7.00;99.90
14962;DHT22;56489;53.166;10.864;2022-11-15T05:26:15;7.00;99.90
14962;DHT22;56489;53.166;10.864;2022-11-15T05:28:43;7.00;99.90
14962;DHT22;56489;53.166;10.864;2022-11-15T05:31:11;7.00;99.90
14962;DHT22;56489;53.166;10.864;2022-11-15T05:33:39;7.00;99.90
14962;DHT22;56489;53.166;10.864;2022-11-15T05:39:08;7.10;99.90
14962;DHT22;56489;53.166;10.864;2022-11-15T05:41:43;7.10;99.90
14962;DHT22;56489;53.166;10.864;2022-11-15T05:44:13;7.10;99.90
14962;DHT22;56489;53.166;10.864;2022-11-15T05:46:42;7.10;99.90
14962;DHT22;56489;53.166;10.864;2022-11-15T05:49:12;7.10;99.90
14962;DHT22;56489;53.166;10.864;2022-11-15T05:51:41;7.10;99.90
14962;DHT22;56489;53.166;10.864;2022-11-15T05:54:10;7.10;99.90
14962;DHT22;56489;53.166;10.864;2022-11-15T05:56:37;7.10;99.90
14962;DHT22;56489;53.166;10.864;2022-11-15T05:59:05;7.20;99.90
14962;DHT22;56489;53.166;10.864;2022-11-15T06:01:33;7.30;99.90
14962;DHT22;56489;53.166;10.864;2022-11-15T06:04:01;7.30;99.90
14962;DHT22;56489;53.166;10.864;2022-11-15T06:06:28;7.30;99.90
14962;DHT22;56489;53.166;10.864;2022-11-15T06:08:55;7.30;99.90
14962;DHT22;56489;53.166;10.864;2022-11-15T06:11:22;7.30;99.90
14962;DHT22;56489;53.166;10.864;2022-11-15T06:13:49;7.30;99.90
14962;DHT22;56489;53.166;10.864;2022-11-15T06:16:16;7.30;99.90
14962;DHT22;56489;53.166;10.864;2022-11-15T06:18:43;7.30;99.90
14962;DHT22;56489;53.166;10.864;2022-11-15T06:21:10;7.20;99.90
14962;DHT22;56489;53.166;10.864;2022-11-15T06:23:36;7.20;99.90
14962;DHT22;56489;53.166;10.864;2022-11-15T06:26:03;7.20;99.90
14962;DHT22;56489;53.166;10.864;2022-11-15T06:28:32;7.20;99.90
14962;DHT22;56489;53.166;10.864;2022-11-15T06:31:06;7.20;99.90
14962;DHT22;56489;53.166;10.864;2022-11-15T06:33:33;7.10;99.90
14962;DHT22;56489;53.166;10.864;2022-11-15T06:36:05;7.10;99.90
14962;DHT22;56489;53.166;10.864;2022-11-15T06:38:32;7.10;99.90
14962;DHT22;56489;53.166;10.864;2022-11-15T06:41:06;7.10;99.90
14962;DHT22;56489;53.166;10.864;2022-11-15T06:43:33;7.10;99.90
14962;DHT22;56489;53.166;10.864;2022-11-15T06:46:02;7.10;99.90
14962;DHT22;56489;53.166;10.864;2022-11-15T06:48:30;7.10;99.90
14962;DHT22;56489;53.166;10.864;2022-11-15T06:50:58;7.10;99.90
14962;DHT22;56489;53.166;10.864;2022-11-15T06:53:26;7.10;99.90
14962;DHT22;56489;53.166;10.864;2022-11-15T06:55:53;7.10;99.90
14962;DHT22;56489;53.166;10.864;2022-11-15T06:58:21;7.20;99.90
14962;DHT22;56489;53.166;10.864;2022-11-15T07:00:48;7.20;99.90
14962;DHT22;56489;53.166;10.864;2022-11-15T07:03:15;7.30;99.90
14962;DHT22;56489;53.166;10.864;2022-11-15T07:05:41;7.40;99.90
14962;DHT22;56489;53.166;10.864;2022-11-15T07:08:08;7.40;99.90
14962;DHT22;56489;53.166;10.864;2022-11-15T07:10:36;7.50;99.90
14962;DHT22;56489;53.166;10.864;2022-11-15T07:13:02;7.60;99.90
14962;DHT22;56489;53.166;10.864;2022-11-15T07:15:29;7.60;99.90
14962;DHT22;56489;53.166;10.864;2022-11-15T07:18:00;7.70;99.90
14962;DHT22;56489;53.166;10.864;2022-11-15T07:20:28;7.90;99.90
14962;DHT22;56489;53.166;10.864;2022-11-15T07:23:04;8.00;99.90
14962;DHT22;56489;53.166;10.864;2022-11-15T07:25:32;8.10;99.90
14962;DHT22;56489;53.166;10.864;2022-11-15T07:28:00;8.10;99.90
14962;DHT22;56489;53.166;10.864;2022-11-15T07:30:27;8.20;99.90
14962;DHT22;56489;53.166;10.864;2022-11-15T07:32:59;8.30;99.90
14962;DHT22;56489;53.166;10.864;2022-11-15T07:35:27;8.40;99.90
14962;DHT22;56489;53.166;10.864;2022-11-15T07:40:22;8.50;99.90
14962;DHT22;56489;53.166;10.864;2022-11-15T07:42:49;8.50;99.90
14962;DHT22;56489;53.166;10.864;2022-11-15T07:45:20;8.60;99.90
14962;DHT22;56489;53.166;10.864;2022-11-15T07:47:47;8.60;99.90
14962;DHT22;56489;53.166;10.864;2022-11-15T07:50:15;8.60;99.90
14962;DHT22;56489;53.166;10.864;2022-11-15T07:52:42;8.70;99.90
14962;DHT22;56489;53.166;10.864;2022-11-15T07:55:09;8.70;99.90
14962;DHT22;56489;53.166;10.864;2022-11-15T07:57:36;8.70;99.90
14962;DHT22;56489;53.166;10.864;2022-11-15T08:00:06;8.70;99.90
14962;DHT22;56489;53.166;10.864;2022-11-15T08:02:34;8.80;99.90
14962;DHT22;56489;53.166;10.864;2022-11-15T08:05:00;8.90;99.90
14962;DHT22;56489;53.166;10.864;2022-11-15T08:07:31;8.90;99.90
14962;DHT22;56489;53.166;10.864;2022-11-15T08:09:58;8.90;99.90
14962;DHT22;56489;53.166;10.864;2022-11-15T08:12:28;8.90;99.90
14962;DHT22;56489;53.166;10.864;2022-11-15T08:14:57;9.00;99.90
14962;DHT22;56489;53.166;10.864;2022-11-15T08:17:24;9.10;99.90
14962;DHT22;56489;53.166;10.864;2022-11-15T08:19:51;9.20;99.90
14962;DHT22;56489;53.166;10.864;2022-11-15T08:22:18;9.30;99.90
14962;DHT22;56489;53.166;10.864;2022-11-15T08:24:45;9.40;99.90
14962;DHT22;56489;53.166;10.864;2022-11-15T08:27:11;9.50;99.90
14962;DHT22;56489;53.166;10.864;2022-11-15T08:29:43;9.60;99.90
14962;DHT22;56489;53.166;10.864;2022-11-15T08:32:10;9.70;99.90
14962;DHT22;56489;53.166;10.864;2022-11-15T08:34:38;9.80;99.90
14962;DHT22;56489;53.166;10.864;2022-11-15T08:37:05;9.90;99.90
14962;DHT22;56489;53.166;10.864;2022-11-15T08:39:32;10.10;99.90
14962;DHT22;56489;53.166;10.864;2022-11-15T08:41:59;10.10;99.90
14962;DHT22;56489;53.166;10.864;2022-11-15T08:44:25;10.20;99.90
14962;DHT22;56489;53.166;10.864;2022-11-15T08:46:53;10.30;99.90
14962;DHT22;56489;53.166;10.864;2022-11-15T08:49:19;10.30;99.90
14962;DHT22;56489;53.166;10.864;2022-11-15T08:51:46;10.40;99.90
14962;DHT22;56489;53.166;10.864;2022-11-15T08:54:13;10.50;99.90
14962;DHT22;56489;53.166;10.864;2022-11-15T08:56:40;10.60;99.90
14962;DHT22;56489;53.166;10.864;2022-11-15T08:59:07;10.80;99.90
14962;DHT22;56489;53.166;10.864;2022-11-15T09:01:34;10.90;99.90
14962;DHT22;56489;53.166;10.864;2022-11-15T09:04:01;11.00;99.90
14962;DHT22;56489;53.166;10.864;2022-11-15T09:06:27;11.10;99.90
14962;DHT22;56489;53.166;10.864;2022-11-15T09:08:54;11.20;99.90
14962;DHT22;56489;53.166;10.864;2022-11-15T09:11:21;11.30;99.90
14962;DHT22;56489;53.166;10.864;2022-11-15T09:13:50;11.40;99.90
14962;DHT22;56489;53.166;10.864;2022-11-15T09:16:16;11.40;99.90
14962;DHT22;56489;53.166;10.864;2022-11-15T09:18:43;11.50;99.90
14962;DHT22;56489;53.166;10.864;2022-11-15T09:21:10;11.60;99.90
14962;DHT22;56489;53.166;10.864;2022-11-15T09:23:38;11.70;99.90
14962;DHT22;56489;53.166;10.864;2022-11-15T09:26:05;11.80;99.90
14962;DHT22;56489;53.166;10.864;2022-11-15T09:28:32;11.90;99.90
14962;DHT22;56489;53.166;10.864;2022-11-15T09:31:01;12.00;99.90
14962;DHT22;56489;53.166;10.864;2022-11-15T09:33:29;12.00;99.90
14962;DHT22;56489;53.166;10.864;2022-11-15T09:36:05;12.10;99.90
14962;DHT22;56489;53.166;10.864;2022-11-15T09:38:33;12.20;99.90
14962;DHT22;56489;53.166;10.864;2022-11-15T09:49:31;11.90;99.90
14962;DHT22;56489;53.166;10.864;2022-11-15T09:51:58;11.80;99.90
14962;DHT22;56489;53.166;10.864;2022-11-15T09:54:26;11.80;99.90
14962;DHT22;56489;53.166;10.864;2022-11-15T09:57:37;11.90;99.90
14962;DHT22;56489;53.166;10.864;2022-11-15T10:00:13;12.10;99.90
14962;DHT22;56489;53.166;10.864;2022-11-15T10:03:18;12.10;99.90
14962;DHT22;56489;53.166;10.864;2022-11-15T10:05:50;12.20;99.90
14962;DHT22;56489;53.166;10.864;2022-11-15T10:08:43;12.20;99.90
14962;DHT22;56489;53.166;10.864;2022-11-15T10:11:19;12.30;99.90
14962;DHT22;56489;53.166;10.864;2022-11-15T10:14:19;12.30;99.90
14962;DHT22;56489;53.166;10.864;2022-11-15T10:17:02;12.20;99.90
14962;DHT22;56489;53.166;10.864;2022-11-15T10:19:39;12.30;99.90
14962;DHT22;56489;53.166;10.864;2022-11-15T10:24:42;12.20;99.90
14962;DHT22;56489;53.166;10.864;2022-11-15T10:27:12;12.40;99.90
14962;DHT22;56489;53.166;10.864;2022-11-15T10:29:48;12.40;99.90
14962;DHT22;56489;53.166;10.864;2022-11-15T10:32:17;12.40;99.90
14962;DHT22;56489;53.166;10.864;2022-11-15T10:34:46;12.50;99.90
14962;DHT22;56489;53.166;10.864;2022-11-15T10:37:13;12.60;99.90
14962;DHT22;56489;53.166;10.864;2022-11-15T10:39:40;12.60;99.90
14962;DHT22;56489;53.166;10.864;2022-11-15T10:42:22;12.70;99.90
14962;DHT22;56489;53.166;10.864;2022-11-15T10:44:51;12.70;99.90
14962;DHT22;56489;53.166;10.864;2022-11-15T10:47:31;12.90;99.90
14962;DHT22;56489;53.166;10.864;2022-11-15T10:50:11;13.00;99.90
14962;DHT22;56489;53.166;10.864;2022-11-15T10:52:51;12.90;99.90
14962;DHT22;56489;53.166;10.864;2022-11-15T10:55:31;12.90;99.90
14962;DHT22;56489;53.166;10.864;2022-11-15T10:58:04;13.00;99.90
14962;DHT22;56489;53.166;10.864;2022-11-15T11:00:35;13.00;99.90
14962;DHT22;56489;53.166;10.864;2022-11-15T11:03:05;13.00;99.90
14962;DHT22;56489;53.166;10.864;2022-11-15T11:05:38;13.00;99.90
14962;DHT22;56489;53.166;10.864;2022-11-15T11:10:38;13.10;99.90
14962;DHT22;56489;53.166;10.864;2022-11-15T11:13:26;13.20;99.90
14962;DHT22;56489;53.166;10.864;2022-11-15T11:21:16;13.40;99.90
14962;DHT22;56489;53.166;10.864;2022-11-15T11:23:55;13.50;99.90
14962;DHT22;56489;53.166;10.864;2022-11-15T11:29:51;13.60;99.90
14962;DHT22;56489;53.166;10.864;2022-11-15T11:35:45;13.70;99.90
14962;DHT22;56489;53.166;10.864;2022-11-15T11:41:42;13.80;99.90
14962;DHT22;56489;53.166;10.864;2022-11-15T11:46:52;13.80;99.90
14962;DHT22;56489;53.166;10.864;2022-11-15T11:49:28;13.80;99.90
14962;DHT22;56489;53.166;10.864;2022-11-15T12:00:32;13.90;99.90
14962;DHT22;56489;53.166;10.864;2022-11-15T12:05:46;14.00;99.90
14962;DHT22;56489;53.166;10.864;2022-11-15T12:08:19;14.00;99.90
14962;DHT22;56489;53.166;10.864;2022-11-15T12:10:54;14.00;99.90
14962;DHT22;56489;53.166;10.864;2022-11-15T12:13:26;14.00;99.90
14962;DHT22;56489;53.166;10.864;2022-11-15T12:16:21;14.00;99.90
14962;DHT22;56489;53.166;10.864;2022-11-15T12:18:52;14.10;99.90
14962;DHT22;56489;53.166;10.864;2022-11-15T12:24:01;14.20;99.90
14962;DHT22;56489;53.166;10.864;2022-11-15T12:26:54;14.10;99.90
14962;DHT22;56489;53.166;10.864;2022-11-15T12:29:30;14.10;99.90
14962;DHT22;56489;53.166;10.864;2022-11-15T12:31:58;14.10;99.90
14962;DHT22;56489;53.166;10.864;2022-11-15T12:34:45;14.20;99.90
14962;DHT22;56489;53.166;10.864;2022-11-15T12:37:46;14.20;99.90
14962;DHT22;56489;53.166;10.864;2022-11-15T12:40:23;14.20;99.90
14962;DHT22;56489;53.166;10.864;2022-11-15T12:45:43;14.30;99.90
14962;DHT22;56489;53.166;10.864;2022-11-15T13:06:59;14.30;99.90
14962;DHT22;56489;53.166;10.864;2022-11-15T13:17:33;14.40;99.90
14962;DHT22;56489;53.166;10.864;2022-11-15T13:20:02;14.40;99.90
14962;DHT22;56489;53.166;10.864;2022-11-15T13:22:43;14.40;99.90
14962;DHT22;56489;53.166;10.864;2022-11-15T13:33:18;14.30;99.90
14962;DHT22;56489;53.166;10.864;2022-11-15T13:35:48;14.30;99.90
14962;DHT22;56489;53.166;10.864;2022-11-15T13:38:35;14.20;99.90
14962;DHT22;56489;53.166;10.864;2022-11-15T13:41:20;14.10;99.90
14962;DHT22;56489;53.166;10.864;2022-11-15T13:43:48;14.10;99.90
14962;DHT22;56489;53.166;10.864;2022-11-15T13:46:26;14.10;99.90
14962;DHT22;56489;53.166;10.864;2022-11-15T13:49:07;14.10;99.90
14962;DHT22;56489;53.166;10.864;2022-11-15T13:51:44;14.10;99.90
14962;DHT22;56489;53.166;10.864;2022-11-15T13:56:45;14.00;99.90
14962;DHT22;56489;53.166;10.864;2022-11-15T13:59:21;14.00;99.90
14962;DHT22;56489;53.166;10.864;2022-11-15T14:01:51;14.00;99.90
14962;DHT22;56489;53.166;10.864;2022-11-15T14:04:21;14.00;99.90
14962;DHT22;56489;53.166;10.864;2022-11-15T14:06:52;14.00;99.90
14962;DHT22;56489;53.166;10.864;2022-11-15T14:12:00;13.90;99.90
14962;DHT22;56489;53.166;10.864;2022-11-15T14:14:28;13.90;99.90
14962;DHT22;56489;53.166;10.864;2022-11-15T14:16:57;13.90;99.90
14962;DHT22;56489;53.166;10.864;2022-11-15T14:22:13;13.90;99.90
14962;DHT22;56489;53.166;10.864;2022-11-15T14:24:41;13.80;99.90
14962;DHT22;56489;53.166;10.864;2022-11-15T14:27:19;13.80;99.90
14962;DHT22;56489;53.166;10.864;2022-11-15T14:29:47;13.70;99.90
14962;DHT22;56489;53.166;10.864;2022-11-15T14:32:22;13.70;99.90
14962;DHT22;56489;53.166;10.864;2022-11-15T14:34:57;13.60;99.90
14962;DHT22;56489;53.166;10.864;2022-11-15T14:37:29;13.30;99.90
14962;DHT22;56489;53.166;10.864;2022-11-15T14:40:03;13.50;99.90
14962;DHT22;56489;53.166;10.864;2022-11-15T14:42:30;13.40;99.90
14962;DHT22;56489;53.166;10.864;2022-11-15T14:44:57;13.40;99.90
14962;DHT22;56489;53.166;10.864;2022-11-15T14:47:24;13.30;99.90
14962;DHT22;56489;53.166;10.864;2022-11-15T14:49:51;13.20;99.90
14962;DHT22;56489;53.166;10.864;2022-11-15T14:52:29;13.10;99.90
14962;DHT22;56489;53.166;10.864;2022-11-15T14:55:01;13.10;99.90
14962;DHT22;56489;53.166;10.864;2022-11-15T14:57:29;13.00;99.90
14962;DHT22;56489;53.166;10.864;2022-11-15T14:59:56;12.90;99.90
14962;DHT22;56489;53.166;10.864;2022-11-15T15:02:25;12.90;99.90
14962;DHT22;56489;53.166;10.864;2022-11-15T15:04:52;12.80;99.90
14962;DHT22;56489;53.166;10.864;2022-11-15T15:07:19;12.80;99.90
14962;DHT22;56489;53.166;10.864;2022-11-15T15:09:46;12.70;99.90
14962;DHT22;56489;53.166;10.864;2022-11-15T15:12:21;12.70;99.90
14962;DHT22;56489;53.166;10.864;2022-11-15T15:14:49;12.60;99.90
14962;DHT22;56489;53.166;10.864;2022-11-15T15:17:17;12.50;99.90
14962;DHT22;56489;53.166;10.864;2022-11-15T15:19:44;12.50;99.90
14962;DHT22;56489;53.166;10.864;2022-11-15T15:22:16;12.50;99.90
14962;DHT22;56489;53.166;10.864;2022-11-15T15:24:44;12.50;99.90
14962;DHT22;56489;53.166;10.864;2022-11-15T15:27:11;12.60;99.90
14962;DHT22;56489;53.166;10.864;2022-11-15T15:29:38;12.50;99.90
14962;DHT22;56489;53.166;10.864;2022-11-15T15:32:05;12.50;99.90
14962;DHT22;56489;53.166;10.864;2022-11-15T15:34:32;12.60;99.90
14962;DHT22;56489;53.166;10.864;2022-11-15T15:37:25;12.70;99.90
14962;DHT22;56489;53.166;10.864;2022-11-15T15:39:56;12.70;99.90
14962;DHT22;56489;53.166;10.864;2022-11-15T15:42:23;12.80;99.90
14962;DHT22;56489;53.166;10.864;2022-11-15T15:44:50;12.90;99.90
14962;DHT22;56489;53.166;10.864;2022-11-15T15:47:21;13.00;99.90
14962;DHT22;56489;53.166;10.864;2022-11-15T15:49:49;13.00;99.90
14962;DHT22;56489;53.166;10.864;2022-11-15T15:52:17;13.10;99.90
14962;DHT22;56489;53.166;10.864;2022-11-15T15:54:43;13.20;99.90
14962;DHT22;56489;53.166;10.864;2022-11-15T15:57:12;13.30;99.90
14962;DHT22;56489;53.166;10.864;2022-11-15T15:59:40;13.20;99.90
14962;DHT22;56489;53.166;10.864;2022-11-15T16:02:11;13.30;99.90
14962;DHT22;56489;53.166;10.864;2022-11-15T16:04:38;13.30;99.90
14962;DHT22;56489;53.166;10.864;2022-11-15T16:07:04;13.30;99.90
14962;DHT22;56489;53.166;10.864;2022-11-15T16:09:31;13.30;99.90
14962;DHT22;56489;53.166;10.864;2022-11-15T16:12:17;13.40;99.90
14962;DHT22;56489;53.166;10.864;2022-11-15T16:14:44;13.40;99.90
14962;DHT22;56489;53.166;10.864;2022-11-15T16:17:17;13.40;99.90
14962;DHT22;56489;53.166;10.864;2022-11-15T16:19:45;13.40;99.90
14962;DHT22;56489;53.166;10.864;2022-11-15T16:22:11;13.40;99.90
14962;DHT22;56489;53.166;10.864;2022-11-15T16:24:38;13.40;99.90
14962;DHT22;56489;53.166;10.864;2022-11-15T16:27:12;13.40;99.90
14962;DHT22;56489;53.166;10.864;2022-11-15T16:29:40;13.40;99.90
14962;DHT22;56489;53.166;10.864;2022-11-15T16:32:07;13.30;99.90
14962;DHT22;56489;53.166;10.864;2022-11-15T16:34:34;13.30;99.90
14962;DHT22;56489;53.166;10.864;2022-11-15T16:37:23;13.30;99.90
14962;DHT22;56489;53.166;10.864;2022-11-15T16:39:50;13.30;99.90
14962;DHT22;56489;53.166;10.864;2022-11-15T16:42:19;13.30;99.90
14962;DHT22;56489;53.166;10.864;2022-11-15T16:44:46;13.40;99.90
14962;DHT22;56489;53.166;10.864;2022-11-15T16:47:17;13.40;99.90
14962;DHT22;56489;53.166;10.864;2022-11-15T16:49:45;13.40;99.90
14962;DHT22;56489;53.166;10.864;2022-11-15T16:52:12;13.30;99.90
14962;DHT22;56489;53.166;10.864;2022-11-15T16:54:47;13.30;99.90
14962;DHT22;56489;53.166;10.864;2022-11-15T16:57:14;13.40;99.90
14962;DHT22;56489;53.166;10.864;2022-11-15T16:59:42;13.40;99.90
14962;DHT22;56489;53.166;10.864;2022-11-15T17:02:11;13.40;99.90
14962;DHT22;56489;53.166;10.864;2022-11-15T17:04:39;13.50;99.90
14962;DHT22;56489;53.166;10.864;2022-11-15T17:07:05;13.50;99.90
14962;DHT22;56489;53.166;10.864;2022-11-15T17:09:32;13.50;99.90
14962;DHT22;56489;53.166;10.864;2022-11-15T17:12:00;13.50;99.90
14962;DHT22;56489;53.166;10.864;2022-11-15T17:14:26;13.50;99.90
14962;DHT22;56489;53.166;10.864;2022-11-15T17:16:53;13.40;99.90
14962;DHT22;56489;53.166;10.864;2022-11-15T17:19:20;13.40;99.90
14962;DHT22;56489;53.166;10.864;2022-11-15T17:21:47;13.40;99.90
14962;DHT22;56489;53.166;10.864;2022-11-15T17:24:17;13.30;99.90
14962;DHT22;56489;53.166;10.864;2022-11-15T17:26:46;13.20;99.90
14962;DHT22;56489;53.166;10.864;2022-11-15T17:29:13;13.10;99.90
14962;DHT22;56489;53.166;10.864;2022-11-15T17:31:40;13.10;99.90
14962;DHT22;56489;53.166;10.864;2022-11-15T17:34:07;13.10;99.90
14962;DHT22;56489;53.166;10.864;2022-11-15T17:36:34;13.10;99.90
14962;DHT22;56489;53.166;10.864;2022-11-15T17:39:02;13.10;99.90
14962;DHT22;56489;53.166;10.864;2022-11-15T17:41:29;13.00;99.90
14962;DHT22;56489;53.166;10.864;2022-11-15T17:43:57;13.00;99.90
14962;DHT22;56489;53.166;10.864;2022-11-15T17:46:26;13.00;99.90